createdAt,value
2022-07-29T00:01:53.305Z,100239.63
2022-07-29T00:04:21.461Z,100244.66
2022-07-29T00:06:48.497Z,100238.19
2022-07-29T00:09:15.211Z,100246.81
2022-07-29T00:11:41.897Z,100237.84
2022-07-29T00:14:08.771Z,100239.88
2022-07-29T00:16:35.905Z,100240.78
2022-07-29T00:19:02.659Z,100240.72
2022-07-29T00:21:29.435Z,100235.19
2022-07-29T00:23:56.081Z,100238.06
2022-07-29T00:26:22.813Z,100238.66
2022-07-29T00:28:49.409Z,100244.31
2022-07-29T00:31:16.219Z,100237.53
2022-07-29T00:33:42.892Z,100237.94
2022-07-29T00:36:09.494Z,100232.16
2022-07-29T00:38:36.092Z,100232.97
2022-07-29T00:41:03.019Z,100239.34
2022-07-29T00:43:29.619Z,100237.81
2022-07-29T00:45:56.242Z,100234.47
2022-07-29T00:48:22.892Z,100230.91
2022-07-29T00:50:51.048Z,100233.75
2022-07-29T00:53:17.940Z,100239.84
2022-07-29T00:55:44.599Z,100230.41
2022-07-29T00:58:14.482Z,100237.19
2022-07-29T01:00:43.044Z,100245.84
2022-07-29T01:03:12.586Z,100232.41
2022-07-29T01:05:50.020Z,100237.09
2022-07-29T01:08:19.764Z,100228.03
2022-07-29T01:10:47.914Z,100230.19
2022-07-29T01:13:17.045Z,100236.84
2022-07-29T01:16:24.134Z,100234.88
2022-07-29T01:18:54.134Z,100230.78
2022-07-29T01:21:51.947Z,100234.28
2022-07-29T01:24:40.036Z,100244.25
2022-07-29T01:27:24.756Z,100242.56
2022-07-29T01:29:58.277Z,100233.87
2022-07-29T01:32:30.130Z,100235.25
2022-07-29T01:34:59.489Z,100240.50
2022-07-29T01:37:31.604Z,100241.91
2022-07-29T01:40:01.146Z,100232.66
2022-07-29T01:42:40.105Z,100236.47
2022-07-29T01:45:15.509Z,100242.50
2022-07-29T01:47:47.521Z,100235.47
2022-07-29T01:50:18.486Z,100242.41
2022-07-29T01:52:50.608Z,100239.69
2022-07-29T01:55:21.457Z,100240.28
2022-07-29T01:57:49.516Z,100243.84
2022-07-29T02:00:17.081Z,100238.72
2022-07-29T02:02:46.546Z,100254.25
2022-07-29T02:05:16.761Z,100240.69
2022-07-29T02:07:45.047Z,100240.25
2022-07-29T02:10:14.010Z,100236.28
2022-07-29T02:12:43.593Z,100240.37
2022-07-29T02:15:18.066Z,100236.22
2022-07-29T02:17:56.072Z,100240.81
2022-07-29T02:20:26.262Z,100236.13
2022-07-29T02:22:54.890Z,100239.06
2022-07-29T02:25:24.998Z,100239.44
2022-07-29T02:28:04.922Z,100240.50
2022-07-29T02:30:32.907Z,100240.72
2022-07-29T02:33:00.601Z,100240.09
2022-07-29T02:35:28.150Z,100242.97
2022-07-29T02:38:21.607Z,100237.56
2022-07-29T02:40:51.625Z,100245.00
2022-07-29T02:43:19.632Z,100243.66
2022-07-29T02:45:48.371Z,100244.00
2022-07-29T02:48:23.492Z,100245.53
2022-07-29T02:50:56.393Z,100239.72
2022-07-29T02:53:28.807Z,100239.44
2022-07-29T02:56:15.631Z,100236.06
2022-07-29T02:58:47.930Z,100238.78
2022-07-29T03:01:21.915Z,100242.78
2022-07-29T03:03:50.571Z,100231.25
2022-07-29T03:06:28.577Z,100238.59
2022-07-29T03:09:10.492Z,100231.91
2022-07-29T03:11:49.552Z,100234.97
2022-07-29T03:14:19.348Z,100237.00
2022-07-29T03:16:46.789Z,100238.50
2022-07-29T03:19:14.167Z,100229.16
2022-07-29T03:21:40.896Z,100230.69
2022-07-29T03:24:10.486Z,100230.75
2022-07-29T03:26:38.476Z,100234.25
2022-07-29T03:29:05.147Z,100229.22
2022-07-29T03:31:33.574Z,100227.37
2022-07-29T03:34:00.519Z,100232.69
2022-07-29T03:36:27.229Z,100234.47
2022-07-29T03:38:54.461Z,100233.47
2022-07-29T03:41:23.595Z,100233.91
2022-07-29T03:43:52.818Z,100232.59
2022-07-29T03:46:24.453Z,100237.88
2022-07-29T03:48:57.569Z,100236.50
2022-07-29T03:51:33.852Z,100237.75
2022-07-29T03:54:07.907Z,100238.44
2022-07-29T03:56:40.790Z,100251.22
2022-07-29T03:59:08.702Z,100247.00
2022-07-29T04:01:36.380Z,100250.25
2022-07-29T04:04:05.632Z,100250.06
2022-07-29T04:06:40.417Z,100255.16
2022-07-29T04:09:07.045Z,100257.84
2022-07-29T04:11:56.893Z,100261.19
2022-07-29T04:14:24.492Z,100256.63
2022-07-29T04:16:51.152Z,100257.75
2022-07-29T04:19:17.724Z,100253.50
2022-07-29T04:21:46.142Z,100260.09
2022-07-29T04:24:13.122Z,100259.66
2022-07-29T04:26:39.897Z,100258.28
2022-07-29T04:29:06.572Z,100259.19
2022-07-29T04:31:33.277Z,100245.78
2022-07-29T04:33:59.956Z,100250.22
2022-07-29T04:36:29.388Z,100249.53
2022-07-29T04:38:57.067Z,100249.81
2022-07-29T04:41:23.659Z,100250.03
2022-07-29T04:44:02.059Z,100258.19
2022-07-29T04:46:29.172Z,100249.63
2022-07-29T04:48:56.078Z,100257.09
2022-07-29T04:51:22.881Z,100254.53
2022-07-29T04:53:49.749Z,100257.31
2022-07-29T04:56:16.350Z,100256.66
2022-07-29T04:58:43.000Z,100258.72
2022-07-29T05:01:09.716Z,100260.75
2022-07-29T05:03:36.346Z,100263.59
2022-07-29T05:06:02.992Z,100259.88
2022-07-29T05:08:29.638Z,100262.78
2022-07-29T05:10:56.298Z,100255.25
2022-07-29T05:13:22.948Z,100248.47
2022-07-29T05:15:49.648Z,100252.56
2022-07-29T05:18:16.662Z,100257.87
2022-07-29T05:20:43.319Z,100266.69
2022-07-29T05:23:10.100Z,100259.66
2022-07-29T05:25:40.816Z,100263.53
2022-07-29T05:28:10.849Z,100262.88
2022-07-29T05:30:37.566Z,100263.94
2022-07-29T05:33:04.319Z,100258.78
2022-07-29T05:35:30.963Z,100259.44
2022-07-29T05:37:57.574Z,100262.84
2022-07-29T05:40:24.206Z,100257.87
2022-07-29T05:42:50.924Z,100259.75
2022-07-29T05:45:17.544Z,100251.59
2022-07-29T05:47:44.266Z,100259.16
2022-07-29T05:50:10.946Z,100257.28
2022-07-29T05:52:37.622Z,100263.47
2022-07-29T05:55:06.572Z,100262.16
2022-07-29T05:57:33.644Z,100254.31
2022-07-29T06:00:00.333Z,100261.03
2022-07-29T06:02:26.993Z,100268.75
2022-07-29T06:04:53.762Z,100260.81
2022-07-29T06:07:20.824Z,100271.41
2022-07-29T06:09:47.453Z,100268.94
2022-07-29T06:12:14.161Z,100264.66
2022-07-29T06:14:41.121Z,100266.41
2022-07-29T06:17:07.961Z,100260.06
2022-07-29T06:19:37.767Z,100259.66
2022-07-29T06:22:05.006Z,100271.91
2022-07-29T06:24:31.761Z,100271.25
2022-07-29T06:26:59.459Z,100268.69
2022-07-29T06:29:26.285Z,100265.59
2022-07-29T06:31:53.125Z,100274.34
2022-07-29T06:34:20.586Z,100276.81
2022-07-29T06:36:47.597Z,100284.59
2022-07-29T06:39:15.480Z,100279.25
2022-07-29T06:41:42.252Z,100281.72
2022-07-29T06:44:09.000Z,100285.59
2022-07-29T06:46:35.728Z,100281.66
2022-07-29T06:49:03.318Z,100283.72
2022-07-29T06:51:30.562Z,100284.94
2022-07-29T06:54:02.425Z,100281.53
2022-07-29T06:56:39.492Z,100278.06
2022-07-29T06:59:08.461Z,100284.13
2022-07-29T07:01:36.927Z,100278.84
2022-07-29T07:04:03.620Z,100275.47
2022-07-29T07:06:30.358Z,100282.91
2022-07-29T07:08:56.992Z,100287.94
2022-07-29T07:11:23.682Z,100285.66
2022-07-29T07:13:50.315Z,100275.13
2022-07-29T07:16:17.261Z,100283.50
2022-07-29T07:18:46.073Z,100274.47
2022-07-29T07:21:19.207Z,100275.03
2022-07-29T07:23:47.180Z,100279.06
2022-07-29T07:26:13.925Z,100264.37
2022-07-29T07:28:40.582Z,100279.25
2022-07-29T07:31:07.295Z,100278.16
2022-07-29T07:33:33.940Z,100282.94
2022-07-29T07:36:00.619Z,100278.69
2022-07-29T07:38:27.237Z,100271.72
2022-07-29T07:40:53.889Z,100277.22
2022-07-29T07:43:20.585Z,100278.06
2022-07-29T07:45:47.242Z,100269.56
2022-07-29T07:48:13.963Z,100268.97
2022-07-29T07:50:40.633Z,100271.19
2022-07-29T07:53:07.466Z,100265.44
2022-07-29T07:55:53.560Z,100270.38
2022-07-29T07:58:20.797Z,100272.56
2022-07-29T08:00:48.306Z,100263.78
2022-07-29T08:03:16.682Z,100263.47
2022-07-29T08:05:43.633Z,100265.69
2022-07-29T08:08:10.254Z,100261.66
2022-07-29T08:10:56.669Z,100262.44
2022-07-29T08:13:28.233Z,100264.75
2022-07-29T08:15:58.981Z,100259.06
2022-07-29T08:18:30.988Z,100261.56
2022-07-29T08:20:58.749Z,100258.22
2022-07-29T08:23:25.612Z,100263.97
2022-07-29T08:25:52.350Z,100263.53
2022-07-29T08:28:21.758Z,100260.44
2022-07-29T08:30:52.850Z,100255.22
2022-07-29T08:33:19.523Z,100259.66
2022-07-29T08:35:46.660Z,100259.34
2022-07-29T08:38:13.337Z,100258.91
2022-07-29T08:40:40.471Z,100258.06
2022-07-29T08:43:09.184Z,100247.75
2022-07-29T08:45:47.718Z,100258.81
2022-07-29T08:48:17.377Z,100252.53
2022-07-29T08:50:46.567Z,100249.91
2022-07-29T08:53:16.525Z,100253.84
2022-07-29T08:55:48.988Z,100243.38
2022-07-29T08:58:16.545Z,100245.78
2022-07-29T09:00:52.540Z,100245.22
2022-07-29T09:03:21.375Z,100245.03
2022-07-29T09:05:48.801Z,100240.81
2022-07-29T09:08:17.219Z,100243.31
2022-07-29T09:10:44.829Z,100237.16
2022-07-29T09:13:11.552Z,100242.06
2022-07-29T09:15:38.186Z,100237.94
2022-07-29T09:18:04.831Z,100240.22
2022-07-29T09:20:51.395Z,100241.13
2022-07-29T09:23:22.931Z,100227.19
2022-07-29T09:25:51.070Z,100236.41
2022-07-29T09:28:19.108Z,100233.41
2022-07-29T09:30:57.504Z,100227.50
2022-07-29T09:33:25.237Z,100229.28
2022-07-29T09:36:09.368Z,100223.22
2022-07-29T09:38:38.283Z,100221.03
2022-07-29T09:41:06.943Z,100215.78
2022-07-29T09:43:34.855Z,100206.16
2022-07-29T09:46:12.718Z,100210.88
2022-07-29T09:48:39.521Z,100205.81
2022-07-29T09:51:07.473Z,100208.44
2022-07-29T09:53:38.427Z,100206.75
2022-07-29T09:56:06.056Z,100199.47
2022-07-29T09:58:34.743Z,100202.28
2022-07-29T10:01:02.108Z,100193.84
2022-07-29T10:03:28.937Z,100201.28
2022-07-29T10:06:14.588Z,100196.81
2022-07-29T10:08:42.642Z,100197.31
2022-07-29T10:11:15.156Z,100186.84
2022-07-29T10:13:43.688Z,100187.25
2022-07-29T10:16:11.071Z,100184.16
2022-07-29T10:18:42.275Z,100182.19
2022-07-29T10:21:10.375Z,100180.28
2022-07-29T10:23:46.293Z,100184.13
2022-07-29T10:26:14.084Z,100182.94
2022-07-29T10:28:40.895Z,100184.41
2022-07-29T10:31:14.074Z,100186.84
2022-07-29T10:34:02.364Z,100180.00
2022-07-29T10:36:57.690Z,100181.06
2022-07-29T10:39:44.608Z,100171.84
2022-07-29T10:42:16.877Z,100173.59
2022-07-29T10:44:44.819Z,100166.19
2022-07-29T10:47:32.282Z,100163.31
2022-07-29T10:50:04.770Z,100170.56
2022-07-29T10:52:57.999Z,100162.00
2022-07-29T10:55:43.361Z,100173.69
2022-07-29T10:58:26.906Z,100157.59
2022-07-29T11:00:56.325Z,100160.69
2022-07-29T11:03:49.525Z,100149.22
2022-07-29T11:06:18.004Z,100147.72
2022-07-29T11:09:25.800Z,100148.84
2022-07-29T11:12:02.949Z,100139.59
2022-07-29T11:14:52.924Z,100141.00
2022-07-29T11:17:19.920Z,100145.53
2022-07-29T11:19:52.228Z,100135.72
2022-07-29T11:22:43.168Z,100142.31
2022-07-29T11:25:18.911Z,100138.53
2022-07-29T11:28:16.705Z,100131.53
2022-07-29T11:30:54.871Z,100134.16
2022-07-29T11:33:54.071Z,100123.97
2022-07-29T11:36:19.791Z,100113.91
2022-07-29T11:39:27.215Z,100112.06
2022-07-29T11:42:28.516Z,100114.97
2022-07-29T11:45:04.317Z,100114.09
2022-07-29T11:47:49.289Z,100109.72
2022-07-29T11:50:31.408Z,100112.81
2022-07-29T11:53:01.056Z,100110.34
2022-07-29T11:55:38.669Z,100106.00
2022-07-29T12:01:15.232Z,100101.91
2022-07-29T12:03:43.719Z,100103.09
2022-07-29T12:06:18.273Z,100090.00
2022-07-29T12:07:03.661Z,100101.44
2022-07-29T12:08:48.059Z,100094.63
2022-07-29T12:11:21.256Z,100100.09
2022-07-29T12:13:49.915Z,100087.81
2022-07-29T12:16:16.823Z,100087.56
2022-07-29T12:18:59.974Z,100089.25
2022-07-29T12:21:28.891Z,100085.34
2022-07-29T12:24:01.761Z,100080.84
2022-07-29T12:26:31.733Z,100074.53
2022-07-29T12:29:11.475Z,100079.34
2022-07-29T12:31:45.488Z,100073.38
2022-07-29T12:34:14.199Z,100066.41
2022-07-29T12:36:42.410Z,100065.56
2022-07-29T12:39:10.296Z,100062.41
2022-07-29T12:41:37.376Z,100054.78
2022-07-29T12:44:04.228Z,100059.44
2022-07-29T12:46:30.932Z,100060.91
2022-07-29T12:48:58.456Z,100054.25
2022-07-29T12:51:41.742Z,100039.72
2022-07-29T12:54:14.555Z,100035.44
2022-07-29T12:56:45.334Z,100049.06
2022-07-29T12:59:21.922Z,100033.56
2022-07-29T13:01:52.275Z,100042.22
2022-07-29T13:04:27.502Z,100041.25
2022-07-29T13:07:54.073Z,100031.88
2022-07-29T13:10:18.025Z,100032.09
2022-07-29T13:13:06.633Z,100025.53
2022-07-29T13:15:34.004Z,100025.94
2022-07-29T13:18:00.807Z,100017.81
2022-07-29T13:20:30.720Z,100022.84
2022-07-29T13:23:01.825Z,100015.09
2022-07-29T13:25:33.095Z,100010.50
2022-07-29T13:28:00.484Z,100013.34
2022-07-29T13:30:27.264Z,100007.47
2022-07-29T13:32:54.049Z,100003.47
2022-07-29T13:35:21.395Z,100009.06
2022-07-29T13:37:48.220Z,99998.31
2022-07-29T13:40:15.141Z,99990.69
2022-07-29T13:42:42.578Z,99991.41
2022-07-29T13:45:10.649Z,99985.94
2022-07-29T13:47:37.849Z,99991.44
2022-07-29T13:50:06.827Z,99986.72
2022-07-29T13:52:34.381Z,99987.44
2022-07-29T13:55:01.512Z,99980.63
2022-07-29T13:57:28.758Z,99989.34
2022-07-29T13:59:55.701Z,99985.97
2022-07-29T14:02:25.637Z,99986.44
2022-07-29T14:04:54.582Z,99975.41
2022-07-29T14:07:21.766Z,99974.97
2022-07-29T14:09:48.425Z,99965.94
2022-07-29T14:12:15.146Z,99966.34
2022-07-29T14:14:42.552Z,99959.12
2022-07-29T14:17:10.130Z,99957.84
2022-07-29T14:19:36.979Z,99963.41
2022-07-29T14:22:05.701Z,99963.03
2022-07-29T14:24:36.420Z,99955.25
2022-07-29T14:27:04.639Z,99952.59
2022-07-29T14:29:37.148Z,99957.25
2022-07-29T14:32:08.700Z,99959.41
2022-07-29T14:34:36.693Z,99958.38
2022-07-29T14:37:06.601Z,99957.63
2022-07-29T14:39:36.961Z,99954.47
2022-07-29T14:42:06.500Z,99950.56
2022-07-29T14:44:33.177Z,99948.41
2022-07-29T14:47:00.835Z,99954.25
2022-07-29T14:49:28.433Z,99950.47
2022-07-29T14:51:55.366Z,99944.06
2022-07-29T14:54:22.191Z,99937.41
2022-07-29T14:56:50.382Z,99932.00
2022-07-29T14:59:17.467Z,99925.13
2022-07-29T15:01:44.306Z,99924.31
2022-07-29T15:04:10.906Z,99919.63
2022-07-29T15:06:38.870Z,99916.22
2022-07-29T15:09:05.657Z,99911.19
2022-07-29T15:11:32.386Z,99919.31
2022-07-29T15:14:05.263Z,99912.34
2022-07-29T15:16:31.917Z,99908.09
2022-07-29T15:19:01.173Z,99906.53
2022-07-29T15:21:28.663Z,99900.75
2022-07-29T15:23:55.434Z,99905.78
2022-07-29T15:26:22.477Z,99898.00
2022-07-29T15:28:49.253Z,99893.34
2022-07-29T15:31:16.070Z,99901.06
2022-07-29T15:33:42.822Z,99896.47
2022-07-29T15:36:09.706Z,99894.34
2022-07-29T15:38:41.788Z,99895.94
2022-07-29T15:41:08.925Z,99894.37
2022-07-29T15:43:38.461Z,99885.97
2022-07-29T15:46:23.981Z,99881.38
2022-07-29T15:48:50.789Z,99882.88
2022-07-29T15:51:17.488Z,99877.94
2022-07-29T15:53:44.120Z,99873.81
2022-07-29T15:56:21.027Z,99877.69
2022-07-29T15:58:47.614Z,99873.13
2022-07-29T16:01:14.657Z,99878.84
2022-07-29T16:03:45.957Z,99884.50
2022-07-29T16:06:13.314Z,99873.44
2022-07-29T16:08:40.008Z,99877.66
2022-07-29T16:11:06.655Z,99869.22
2022-07-29T16:13:33.501Z,99880.63
2022-07-29T16:16:02.843Z,99875.97
2022-07-29T16:18:30.497Z,99865.03
2022-07-29T16:20:57.729Z,99870.41
2022-07-29T16:23:24.826Z,99871.03
2022-07-29T16:25:59.770Z,99871.84
2022-07-29T16:28:27.639Z,99872.91
2022-07-29T16:30:54.424Z,99871.75
2022-07-29T16:33:21.080Z,99868.97
2022-07-29T16:35:47.661Z,99868.31
2022-07-29T16:38:14.277Z,99869.13
2022-07-29T16:40:40.964Z,99866.06
2022-07-29T16:43:08.080Z,99864.19
2022-07-29T16:45:45.343Z,99859.47
2022-07-29T16:48:14.340Z,99857.03
2022-07-29T16:50:43.286Z,99860.44
2022-07-29T16:53:10.855Z,99863.87
2022-07-29T16:55:37.640Z,99863.50
2022-07-29T16:58:04.733Z,99867.69
2022-07-29T17:00:31.748Z,99881.41
2022-07-29T17:03:00.033Z,99874.41
2022-07-29T17:05:29.634Z,99875.50
2022-07-29T17:08:16.478Z,99869.25
2022-07-29T17:10:43.096Z,99865.78
2022-07-29T17:13:09.783Z,99860.62
2022-07-29T17:15:36.671Z,99869.50
2022-07-29T17:18:12.261Z,99865.38
2022-07-29T17:20:41.063Z,99861.53
2022-07-29T17:23:07.776Z,99873.63
2022-07-29T17:25:34.485Z,99863.91
2022-07-29T17:28:01.601Z,99873.03
2022-07-29T17:30:29.359Z,99875.41
2022-07-29T17:32:56.149Z,99872.19
2022-07-29T17:35:41.325Z,99867.16
2022-07-29T17:38:07.983Z,99863.94
2022-07-29T17:40:34.571Z,99865.91
2022-07-29T17:43:01.228Z,99868.12
2022-07-29T17:45:50.382Z,99867.59
2022-07-29T17:48:14.685Z,99863.94
2022-07-29T17:50:41.303Z,99869.19
2022-07-29T17:53:15.532Z,99863.03
2022-07-29T17:55:45.375Z,99871.87
2022-07-29T17:58:12.521Z,99875.12
2022-07-29T18:00:39.379Z,99873.38
2022-07-29T18:03:06.391Z,99868.53
2022-07-29T18:05:33.567Z,99870.97
2022-07-29T18:08:00.214Z,99875.44
2022-07-29T18:10:27.008Z,99872.03
2022-07-29T18:12:53.918Z,99873.41
2022-07-29T18:15:20.557Z,99879.78
2022-07-29T18:17:56.870Z,99884.09
2022-07-29T18:20:27.831Z,99876.50
2022-07-29T18:22:54.553Z,99880.25
2022-07-29T18:25:22.146Z,99885.50
2022-07-29T18:27:48.831Z,99890.66
2022-07-29T18:30:15.668Z,99891.94
2022-07-29T18:32:54.372Z,99894.56
2022-07-29T18:35:29.340Z,99898.41
2022-07-29T18:38:01.948Z,99893.19
2022-07-29T18:40:30.048Z,99898.75
2022-07-29T18:42:57.204Z,99899.12
2022-07-29T18:45:28.543Z,99899.38
2022-07-29T18:47:56.438Z,99896.09
2022-07-29T18:50:29.013Z,99903.00
2022-07-29T18:52:58.650Z,99896.75
2022-07-29T18:55:26.267Z,99904.19
2022-07-29T18:57:54.987Z,99908.87
2022-07-29T19:00:24.011Z,99913.72
2022-07-29T19:02:51.199Z,99910.81
2022-07-29T19:05:18.476Z,99912.13
2022-07-29T19:07:45.146Z,99914.34
2022-07-29T19:10:12.308Z,99908.34
2022-07-29T19:12:39.195Z,99912.13
2022-07-29T19:15:07.616Z,99909.87
2022-07-29T19:17:34.243Z,99914.91
2022-07-29T19:20:00.960Z,99915.34
2022-07-29T19:22:27.838Z,99918.16
2022-07-29T19:24:54.463Z,99917.91
2022-07-29T19:27:21.076Z,99922.13
2022-07-29T19:29:47.768Z,99922.44
2022-07-29T19:32:25.381Z,99924.03
2022-07-29T19:35:11.296Z,99936.62
2022-07-29T19:37:37.955Z,99932.41
2022-07-29T19:40:06.312Z,99943.00
2022-07-29T19:42:33.083Z,99943.16
2022-07-29T19:45:00.055Z,99936.31
2022-07-29T19:47:26.747Z,99932.50
2022-07-29T19:49:53.348Z,99930.25
2022-07-29T19:52:20.020Z,99928.16
2022-07-29T19:54:46.598Z,99923.66
2022-07-29T19:57:13.241Z,99927.56
2022-07-29T19:59:41.117Z,99924.22
2022-07-29T20:02:10.853Z,99918.97
2022-07-29T20:04:38.656Z,99930.09
2022-07-29T20:07:06.467Z,99923.19
2022-07-29T20:09:33.270Z,99922.59
2022-07-29T20:11:59.970Z,99918.78
2022-07-29T20:14:26.622Z,99915.38
2022-07-29T20:16:54.449Z,99920.41
2022-07-29T20:19:21.403Z,99921.00
2022-07-29T20:21:48.075Z,99924.66
2022-07-29T20:24:14.678Z,99928.00
2022-07-29T20:26:41.600Z,99938.34
2022-07-29T20:29:08.344Z,99947.53
2022-07-29T20:31:35.022Z,99957.75
2022-07-29T20:34:02.003Z,99954.66
2022-07-29T20:36:28.723Z,99950.13
2022-07-29T20:38:56.150Z,99948.50
2022-07-29T20:41:22.906Z,99937.97
2022-07-29T20:43:52.791Z,99936.84
2022-07-29T20:46:19.463Z,99935.22
2022-07-29T20:48:47.219Z,99925.59
2022-07-29T20:51:14.788Z,99923.66
2022-07-29T20:53:41.826Z,99930.63
2022-07-29T20:56:08.874Z,99933.63
2022-07-29T20:58:36.611Z,99927.94
2022-07-29T21:01:04.210Z,99942.41
2022-07-29T21:03:32.517Z,99956.41
2022-07-29T21:06:00.217Z,99950.72
2022-07-29T21:08:27.293Z,99951.59
2022-07-29T21:10:54.253Z,99948.16
2022-07-29T21:13:22.416Z,99958.47
2022-07-29T21:15:50.638Z,99963.97
2022-07-29T21:18:37.191Z,99955.81
2022-07-29T21:21:05.152Z,99963.31
2022-07-29T21:23:31.814Z,99963.63
2022-07-29T21:25:58.590Z,99964.38
2022-07-29T21:28:29.511Z,99962.66
2022-07-29T21:31:01.369Z,99959.50
2022-07-29T21:33:29.994Z,99959.47
2022-07-29T21:36:26.611Z,99967.62
2022-07-29T21:38:44.058Z,99977.81
2022-07-29T21:41:12.599Z,99979.13
2022-07-29T21:43:41.852Z,99979.25
2022-07-29T21:46:08.950Z,99982.53
2022-07-29T21:48:35.642Z,99983.00
2022-07-29T21:51:02.313Z,99992.13
2022-07-29T21:53:28.971Z,99985.41
2022-07-29T21:55:57.402Z,99991.44
2022-07-29T21:58:24.760Z,99998.72
2022-07-29T22:00:51.661Z,100000.28
2022-07-29T22:03:18.542Z,99999.56
2022-07-29T22:05:45.320Z,100001.88
2022-07-29T22:08:12.024Z,100003.72
2022-07-29T22:10:38.691Z,99997.81
2022-07-29T22:13:05.363Z,100010.84
2022-07-29T22:15:32.323Z,100010.06
2022-07-29T22:17:59.603Z,100011.44
2022-07-29T22:20:26.378Z,100013.72
2022-07-29T22:22:53.965Z,100012.25
2022-07-29T22:25:21.357Z,100019.03
2022-07-29T22:27:48.004Z,100019.69
2022-07-29T22:30:15.561Z,100025.31
2022-07-29T22:32:43.123Z,100020.53
2022-07-29T22:35:10.394Z,100019.00
2022-07-29T22:37:37.469Z,100020.06
2022-07-29T22:40:04.828Z,100023.97
2022-07-29T22:42:31.517Z,100030.25
2022-07-29T22:44:58.113Z,100027.06
2022-07-29T22:47:39.043Z,100026.31
2022-07-29T22:50:11.475Z,100023.25
2022-07-29T22:52:38.084Z,100014.38
2022-07-29T22:55:05.042Z,100017.69
2022-07-29T22:57:31.740Z,100026.53
2022-07-29T23:00:01.583Z,100013.00
2022-07-29T23:02:28.540Z,100010.41
2022-07-29T23:04:55.208Z,100009.13
2022-07-29T23:07:21.810Z,100020.25
2022-07-29T23:09:48.470Z,100026.09
2022-07-29T23:12:15.091Z,100021.56
2022-07-29T23:14:41.833Z,100024.53
2022-07-29T23:17:08.517Z,100017.44
2022-07-29T23:19:35.192Z,100010.91
2022-07-29T23:22:01.807Z,100002.56
2022-07-29T23:24:28.395Z,100006.09
2022-07-29T23:26:55.090Z,100000.25
2022-07-29T23:29:21.724Z,100000.72
2022-07-29T23:31:48.539Z,99997.69
2022-07-29T23:34:15.315Z,99997.38
2022-07-29T23:36:42.428Z,99990.12
2022-07-29T23:39:13.239Z,99990.56
2022-07-29T23:41:40.055Z,99997.03
2022-07-29T23:44:06.794Z,99991.72
2022-07-29T23:46:33.484Z,100001.47
2022-07-29T23:49:00.288Z,99993.84
2022-07-29T23:51:29.072Z,99996.22
2022-07-29T23:53:56.127Z,99994.88
2022-07-29T23:56:23.381Z,99993.28
2022-07-29T23:58:50.283Z,99987.91
